createdAt,value
2022-09-02T00:01:31.904Z,4.25
2022-09-02T00:04:29.805Z,4.95
2022-09-02T00:06:56.806Z,4.45
2022-09-02T00:09:25.838Z,5.03
2022-09-02T00:11:54.513Z,4.57
2022-09-02T00:14:28.536Z,4.45
2022-09-02T00:16:56.325Z,4.10
2022-09-02T00:19:25.779Z,4.68
2022-09-02T00:21:55.123Z,4.55
2022-09-02T00:24:23.853Z,5.22
2022-09-02T00:26:51.561Z,4.25
2022-09-02T00:29:24.293Z,4.35
2022-09-02T00:31:51.323Z,4.45
2022-09-02T00:34:18.491Z,4.97
2022-09-02T00:36:45.667Z,4.45
2022-09-02T00:39:12.749Z,4.30
2022-09-02T00:41:42.028Z,4.88
2022-09-02T00:44:13.366Z,4.07
2022-09-02T00:46:40.907Z,3.65
2022-09-02T00:49:40.433Z,3.83
2022-09-02T00:52:19.960Z,3.60
2022-09-02T00:54:51.021Z,3.67
2022-09-02T00:57:22.257Z,2.83
2022-09-02T01:00:17.574Z,3.83
2022-09-02T01:03:06.909Z,2.92
2022-09-02T01:05:40.681Z,2.95
2022-09-02T01:08:25.274Z,2.85
2022-09-02T01:10:55.689Z,2.90
2022-09-02T01:13:26.122Z,2.85
2022-09-02T01:16:13.453Z,3.13
2022-09-02T01:18:50.046Z,2.40
2022-09-02T01:21:17.922Z,2.00
2022-09-02T01:23:47.788Z,2.63
2022-09-02T01:26:14.819Z,2.13
2022-09-02T01:28:42.024Z,2.92
2022-09-02T01:31:09.878Z,2.67
2022-09-02T01:33:37.057Z,2.50
2022-09-02T01:36:05.236Z,2.40
2022-09-02T01:38:32.788Z,2.20
2022-09-02T01:41:00.037Z,2.30
2022-09-02T01:43:28.356Z,2.00
2022-09-02T01:45:58.265Z,2.10
2022-09-02T01:48:25.603Z,2.45
2022-09-02T01:51:01.429Z,2.60
2022-09-02T01:53:29.825Z,2.47
2022-09-02T01:55:57.237Z,2.63
2022-09-02T01:58:24.566Z,2.50
2022-09-02T02:00:52.852Z,2.60
2022-09-02T02:03:20.545Z,2.22
2022-09-02T02:05:48.147Z,2.40
2022-09-02T02:08:15.490Z,2.00
2022-09-02T02:10:44.079Z,2.00
2022-09-02T02:13:11.614Z,2.50
2022-09-02T02:15:40.469Z,2.15
2022-09-02T02:18:08.030Z,2.30
2022-09-02T02:20:35.718Z,2.42
2022-09-02T02:23:03.180Z,2.58
2022-09-02T02:25:30.172Z,2.35
2022-09-02T02:27:57.410Z,2.53
2022-09-02T02:30:24.607Z,2.35
2022-09-02T02:32:51.608Z,2.60
2022-09-02T02:35:20.333Z,2.72
2022-09-02T02:37:49.466Z,2.20
2022-09-02T02:40:22.793Z,2.65
2022-09-02T02:42:53.463Z,1.88
2022-09-02T02:45:21.082Z,2.42
2022-09-02T02:47:48.232Z,2.65
2022-09-02T02:50:18.719Z,2.75
2022-09-02T02:52:46.289Z,2.47
2022-09-02T02:55:14.740Z,2.03
2022-09-02T02:57:43.107Z,2.35
2022-09-02T03:00:23.570Z,2.05
2022-09-02T03:02:50.720Z,2.10
2022-09-02T03:05:18.831Z,2.42
2022-09-02T03:07:45.985Z,2.00
2022-09-02T03:10:14.159Z,1.80
2022-09-02T03:12:41.770Z,2.10
2022-09-02T03:15:09.890Z,2.15
2022-09-02T03:17:38.576Z,1.88
2022-09-02T03:20:07.008Z,2.05
2022-09-02T03:22:35.990Z,1.70
2022-09-02T03:25:02.976Z,2.60
2022-09-02T03:27:29.932Z,2.20
2022-09-02T03:29:57.150Z,2.13
2022-09-02T03:32:26.283Z,2.13
2022-09-02T03:34:57.545Z,1.70
2022-09-02T03:37:24.710Z,2.08
2022-09-02T03:39:51.711Z,2.38
2022-09-02T03:42:19.692Z,1.80
2022-09-02T03:44:47.540Z,1.73
2022-09-02T03:47:15.372Z,1.92
2022-09-02T03:49:43.783Z,2.28
2022-09-02T03:52:11.266Z,2.63
2022-09-02T03:54:38.357Z,2.33
2022-09-02T03:57:06.392Z,2.85
2022-09-02T03:59:33.430Z,2.60
2022-09-02T04:02:03.420Z,2.85
2022-09-02T04:04:31.159Z,2.92
2022-09-02T04:06:58.763Z,2.55
2022-09-02T04:09:25.823Z,2.50
2022-09-02T04:11:52.990Z,2.65
2022-09-02T04:14:20.161Z,2.40
2022-09-02T04:16:47.663Z,2.25
2022-09-02T04:19:14.727Z,2.53
2022-09-02T04:21:42.049Z,2.08
2022-09-02T04:24:10.925Z,1.92
2022-09-02T04:26:44.835Z,2.20
2022-09-02T04:29:12.867Z,2.72
2022-09-02T04:31:39.909Z,2.17
2022-09-02T04:34:07.670Z,2.20
2022-09-02T04:36:34.945Z,2.10
2022-09-02T04:39:02.011Z,1.98
2022-09-02T04:41:30.805Z,2.50
2022-09-02T04:43:59.624Z,2.25
2022-09-02T04:46:29.786Z,2.05
2022-09-02T04:49:02.687Z,2.10
2022-09-02T04:51:30.216Z,2.03
2022-09-02T04:53:57.650Z,2.30
2022-09-02T04:56:27.585Z,2.78
2022-09-02T04:58:55.676Z,2.35
2022-09-02T05:01:25.752Z,2.42
2022-09-02T05:03:54.224Z,2.35
2022-09-02T05:06:27.240Z,1.92
2022-09-02T05:08:56.507Z,2.03
2022-09-02T05:11:28.676Z,2.30
2022-09-02T05:13:58.594Z,2.08
2022-09-02T05:16:32.915Z,2.20
2022-09-02T05:19:00.419Z,1.73
2022-09-02T05:21:27.609Z,2.30
2022-09-02T05:23:54.817Z,1.80
2022-09-02T05:26:22.891Z,2.03
2022-09-02T05:28:51.319Z,2.10
2022-09-02T05:31:20.674Z,1.80
2022-09-02T05:33:48.637Z,2.08
2022-09-02T05:36:19.308Z,1.83
2022-09-02T05:38:47.453Z,1.45
2022-09-02T05:41:18.393Z,1.80
2022-09-02T05:43:46.268Z,2.33
2022-09-02T05:46:17.938Z,2.00
2022-09-02T05:49:04.957Z,1.80
2022-09-02T05:51:45.075Z,2.07
2022-09-02T05:54:15.958Z,1.73
2022-09-02T05:56:44.983Z,1.95
2022-09-02T05:59:12.646Z,1.88
2022-09-02T06:01:40.654Z,1.65
2022-09-02T06:04:08.596Z,2.20
2022-09-02T06:06:38.865Z,2.00
2022-09-02T06:09:08.688Z,1.90
2022-09-02T06:11:40.189Z,2.00
2022-09-02T06:14:08.609Z,1.92
2022-09-02T06:16:36.406Z,2.22
2022-09-02T06:19:06.481Z,1.95
2022-09-02T06:21:33.842Z,2.10
2022-09-02T06:24:01.051Z,2.67
2022-09-02T06:26:28.137Z,1.80
2022-09-02T06:28:55.219Z,2.00
2022-09-02T06:31:23.253Z,2.10
2022-09-02T06:33:54.453Z,2.28
2022-09-02T06:36:23.527Z,1.92
2022-09-02T06:38:57.329Z,2.33
2022-09-02T06:41:28.543Z,1.90
2022-09-02T06:43:57.869Z,2.00
2022-09-02T06:46:28.279Z,1.90
2022-09-02T06:48:55.582Z,2.17
2022-09-02T06:51:25.850Z,2.30
2022-09-02T06:53:53.098Z,1.88
2022-09-02T06:56:20.617Z,2.17
2022-09-02T06:58:47.702Z,2.42
2022-09-02T07:01:24.110Z,2.42
2022-09-02T07:04:11.084Z,2.15
2022-09-02T07:06:40.694Z,2.33
2022-09-02T07:09:10.469Z,1.98
2022-09-02T07:11:38.176Z,2.30
2022-09-02T07:14:05.966Z,1.83
2022-09-02T07:16:37.094Z,2.08
2022-09-02T07:19:07.452Z,2.50
2022-09-02T07:21:40.892Z,2.47
2022-09-02T07:24:09.921Z,2.30
2022-09-02T07:26:37.574Z,2.40
2022-09-02T07:29:09.005Z,2.47
2022-09-02T07:31:42.197Z,2.25
2022-09-02T07:34:10.169Z,2.45
2022-09-02T07:36:38.011Z,2.60
2022-09-02T07:39:08.568Z,2.40
2022-09-02T07:41:37.132Z,1.90
2022-09-02T07:44:05.751Z,2.15
2022-09-02T07:46:33.784Z,2.03
2022-09-02T07:49:04.383Z,2.00
2022-09-02T07:51:33.428Z,1.80
2022-09-02T07:54:03.228Z,1.80
2022-09-02T07:56:30.621Z,1.63
2022-09-02T07:58:58.166Z,1.67
2022-09-02T08:01:25.796Z,1.80
2022-09-02T08:03:53.740Z,2.10
2022-09-02T08:06:21.916Z,1.92
2022-09-02T08:09:01.434Z,1.60
2022-09-02T08:11:29.167Z,1.90
2022-09-02T08:13:56.559Z,1.70
2022-09-02T08:16:24.737Z,1.70
2022-09-02T08:18:52.046Z,1.50
2022-09-02T08:21:19.175Z,1.52
2022-09-02T08:23:51.656Z,1.42
2022-09-02T08:26:19.126Z,1.20
2022-09-02T08:28:46.199Z,1.27
2022-09-02T08:31:13.243Z,1.42
2022-09-02T08:33:40.337Z,1.35
2022-09-02T08:36:12.093Z,1.35
2022-09-02T08:38:39.339Z,1.45
2022-09-02T08:41:24.883Z,1.30
2022-09-02T08:43:55.551Z,1.10
2022-09-02T08:46:26.609Z,1.45
2022-09-02T08:49:00.331Z,1.30
2022-09-02T08:51:52.884Z,1.40
2022-09-02T08:54:28.473Z,1.00
2022-09-02T08:56:56.595Z,1.40
2022-09-02T08:59:26.733Z,1.30
2022-09-02T09:02:04.159Z,1.48
2022-09-02T09:04:57.002Z,1.60
2022-09-02T09:07:40.858Z,1.20
2022-09-02T09:10:31.148Z,1.25
2022-09-02T09:13:41.436Z,1.40
2022-09-02T09:16:11.893Z,1.10
2022-09-02T09:19:03.031Z,1.50
2022-09-02T09:21:33.455Z,1.20
2022-09-02T09:24:07.101Z,1.10
2022-09-02T09:26:38.457Z,1.45
2022-09-02T09:29:06.098Z,1.10
2022-09-02T09:31:35.754Z,1.15
2022-09-02T09:34:06.339Z,1.10
2022-09-02T09:36:43.972Z,1.10
2022-09-02T09:39:31.664Z,1.30
2022-09-02T09:42:04.294Z,1.25
2022-09-02T09:44:37.690Z,1.20
2022-09-02T09:47:22.841Z,1.30
2022-09-02T09:50:11.580Z,1.05
2022-09-02T09:52:39.055Z,1.10
2022-09-02T09:55:19.220Z,1.60
2022-09-02T09:57:53.713Z,1.30
2022-09-02T10:00:34.579Z,1.20
2022-09-02T10:03:05.357Z,1.20
2022-09-02T10:05:38.302Z,1.45
2022-09-02T10:08:27.665Z,1.38
2022-09-02T10:10:57.729Z,1.27
2022-09-02T10:13:31.004Z,1.30
2022-09-02T10:16:35.517Z,1.33
2022-09-02T10:19:05.346Z,1.20
2022-09-02T10:21:47.527Z,1.10
2022-09-02T10:24:23.164Z,1.10
2022-09-02T10:26:58.935Z,1.05
2022-09-02T10:29:41.766Z,1.20
2022-09-02T10:32:42.790Z,1.48
2022-09-02T10:35:31.732Z,1.38
2022-09-02T10:38:24.894Z,1.48
2022-09-02T10:41:00.688Z,1.60
2022-09-02T10:43:44.100Z,1.35
2022-09-02T10:46:18.514Z,1.13
2022-09-02T10:49:01.619Z,1.17
2022-09-02T10:51:37.542Z,1.00
2022-09-02T10:54:35.523Z,1.95
2022-09-02T10:57:11.539Z,1.17
2022-09-02T10:59:48.743Z,1.10
2022-09-02T11:02:32.202Z,1.30
2022-09-02T11:05:10.016Z,1.55
2022-09-02T11:07:44.283Z,1.00
2022-09-02T11:10:35.386Z,0.90
2022-09-02T11:13:12.216Z,1.10
2022-09-02T11:15:52.403Z,1.10
2022-09-02T11:18:23.230Z,1.10
2022-09-02T11:21:14.939Z,1.02
2022-09-02T11:23:55.500Z,1.00
2022-09-02T11:26:40.695Z,1.30
2022-09-02T11:29:16.783Z,0.80
2022-09-02T11:32:02.898Z,1.10
2022-09-02T11:34:38.490Z,1.13
2022-09-02T11:37:11.112Z,0.93
2022-09-02T11:40:11.187Z,1.02
2022-09-02T11:43:00.045Z,0.93
2022-09-02T11:45:45.932Z,1.00
2022-09-02T11:48:38.167Z,1.00
2022-09-02T11:51:30.982Z,1.10
2022-09-02T11:54:01.206Z,1.10
2022-09-02T11:56:36.300Z,1.30
2022-09-02T11:59:03.922Z,1.17
2022-09-02T12:01:53.476Z,0.98
2022-09-02T12:07:14.046Z,1.00
2022-09-02T12:09:55.270Z,1.35
2022-09-02T12:12:37.542Z,0.93
2022-09-02T12:15:07.836Z,1.00
2022-09-02T12:17:50.097Z,1.10
2022-09-02T12:20:39.028Z,1.40
2022-09-02T12:23:08.320Z,1.00
2022-09-02T12:25:49.782Z,1.40
2022-09-02T12:28:30.710Z,1.30
2022-09-02T12:31:08.914Z,1.00
2022-09-02T12:33:38.588Z,1.20
2022-09-02T12:36:07.653Z,1.30
2022-09-02T12:38:40.338Z,1.10
2022-09-02T12:41:12.231Z,1.30
2022-09-02T12:43:44.803Z,1.00
2022-09-02T12:46:45.325Z,2.10
2022-09-02T12:49:27.746Z,1.70
2022-09-02T12:51:58.159Z,1.30
2022-09-02T12:54:39.183Z,1.65
2022-09-02T12:57:07.984Z,1.23
2022-09-02T12:59:38.332Z,1.48
2022-09-02T13:02:29.739Z,1.30
2022-09-02T13:05:16.237Z,1.38
2022-09-02T13:08:02.555Z,1.50
2022-09-02T13:11:10.746Z,1.23
2022-09-02T13:14:03.442Z,1.40
2022-09-02T13:16:42.440Z,1.50
2022-09-02T13:19:36.817Z,1.60
2022-09-02T13:22:37.378Z,1.52
2022-09-02T13:25:32.734Z,2.03
2022-09-02T13:28:17.859Z,1.60
2022-09-02T13:30:53.757Z,1.50
2022-09-02T13:33:21.402Z,1.53
2022-09-02T13:35:54.876Z,1.33
2022-09-02T13:38:25.511Z,1.40
2022-09-02T13:40:52.959Z,1.13
2022-09-02T13:43:24.173Z,1.73
2022-09-02T13:45:52.676Z,1.30
2022-09-02T13:48:28.914Z,1.25
2022-09-02T13:50:58.481Z,1.85
2022-09-02T13:53:58.810Z,1.20
2022-09-02T13:56:31.025Z,1.10
2022-09-02T13:58:58.199Z,1.48
2022-09-02T14:01:36.017Z,1.40
2022-09-02T14:04:09.936Z,1.73
2022-09-02T14:06:42.261Z,1.10
2022-09-02T14:09:20.583Z,1.92
2022-09-02T14:11:48.660Z,1.48
2022-09-02T14:14:23.649Z,1.40
2022-09-02T14:16:50.717Z,1.20
2022-09-02T14:19:17.679Z,1.10
2022-09-02T14:21:50.669Z,1.20
2022-09-02T14:24:22.896Z,1.10
2022-09-02T14:26:53.264Z,1.17
2022-09-02T14:29:21.809Z,1.00
2022-09-02T14:32:15.519Z,1.10
2022-09-02T14:34:47.533Z,1.30
2022-09-02T14:37:26.977Z,1.10
2022-09-02T14:40:11.968Z,1.15
2022-09-02T14:42:57.555Z,1.20
2022-09-02T14:45:33.521Z,1.35
2022-09-02T14:48:15.418Z,1.25
2022-09-02T14:50:42.557Z,1.20
2022-09-02T14:53:11.447Z,1.30
2022-09-02T14:55:50.168Z,1.33
2022-09-02T14:58:18.200Z,1.70
2022-09-02T15:00:47.827Z,1.30
2022-09-02T15:03:16.639Z,1.08
2022-09-02T15:05:44.459Z,1.10
2022-09-02T15:08:12.023Z,1.80
2022-09-02T15:10:40.629Z,1.13
2022-09-02T15:13:12.277Z,1.27
2022-09-02T15:15:40.553Z,1.70
2022-09-02T15:18:09.155Z,1.13
2022-09-02T15:20:36.495Z,1.30
2022-09-02T15:23:03.864Z,1.27
2022-09-02T15:25:31.173Z,1.38
2022-09-02T15:27:58.224Z,1.20
2022-09-02T15:30:25.452Z,1.10
2022-09-02T15:32:52.584Z,1.50
2022-09-02T15:35:19.596Z,1.17
2022-09-02T15:37:50.456Z,1.10
2022-09-02T15:40:17.534Z,1.80
2022-09-02T15:42:44.489Z,1.10
2022-09-02T15:45:11.959Z,1.30
2022-09-02T15:47:39.464Z,1.20
2022-09-02T15:50:06.855Z,1.30
2022-09-02T15:52:35.277Z,1.58
2022-09-02T15:55:02.457Z,1.17
2022-09-02T15:57:31.061Z,1.30
2022-09-02T15:59:58.205Z,1.27
2022-09-02T16:02:25.237Z,1.27
2022-09-02T16:04:52.324Z,1.20
2022-09-02T16:07:19.484Z,1.35
2022-09-02T16:09:46.498Z,1.40
2022-09-02T16:12:13.507Z,1.10
2022-09-02T16:14:40.613Z,1.13
2022-09-02T16:17:09.142Z,1.00
2022-09-02T16:19:36.269Z,1.42
2022-09-02T16:22:03.432Z,1.00
2022-09-02T16:24:30.683Z,0.75
2022-09-02T16:26:57.885Z,1.27
2022-09-02T16:29:28.186Z,1.35
2022-09-02T16:32:23.729Z,0.98
2022-09-02T16:34:43.002Z,1.10
2022-09-02T16:37:10.044Z,0.95
2022-09-02T16:39:37.143Z,1.25
2022-09-02T16:42:04.726Z,1.10
2022-09-02T16:44:34.173Z,1.00
2022-09-02T16:47:01.265Z,1.38
2022-09-02T16:49:28.315Z,1.20
2022-09-02T16:51:57.984Z,1.00
2022-09-02T16:54:31.349Z,1.10
2022-09-02T16:57:00.267Z,1.20
2022-09-02T16:59:27.820Z,0.90
2022-09-02T17:01:54.900Z,1.02
2022-09-02T17:04:21.954Z,1.20
2022-09-02T17:06:48.990Z,1.00
2022-09-02T17:09:16.594Z,1.00
2022-09-02T17:11:45.590Z,0.90
2022-09-02T17:14:17.749Z,1.17
2022-09-02T17:16:47.012Z,1.05
2022-09-02T17:19:21.325Z,1.00
2022-09-02T17:21:54.005Z,1.40
2022-09-02T17:24:23.503Z,0.98
2022-09-02T17:26:52.683Z,1.10
2022-09-02T17:29:47.449Z,1.00
2022-09-02T17:32:09.704Z,0.80
2022-09-02T17:34:37.179Z,0.77
2022-09-02T17:37:05.532Z,0.95
2022-09-02T17:39:34.510Z,1.05
2022-09-02T17:42:06.507Z,1.00
2022-09-02T17:44:37.606Z,0.90
2022-09-02T17:47:16.280Z,0.90
2022-09-02T17:49:46.228Z,1.23
2022-09-02T17:52:32.585Z,0.88
2022-09-02T17:54:59.639Z,0.80
2022-09-02T17:57:53.245Z,1.17
2022-09-02T18:00:26.845Z,1.05
2022-09-02T18:03:17.019Z,1.00
2022-09-02T18:05:54.391Z,1.30
2022-09-02T18:08:21.507Z,1.00
2022-09-02T18:10:58.019Z,0.90
2022-09-02T18:13:33.278Z,1.10
2022-09-02T18:16:29.664Z,0.88
2022-09-02T18:19:25.598Z,1.20
2022-09-02T18:22:20.966Z,1.10
2022-09-02T18:24:55.007Z,0.98
2022-09-02T18:27:55.881Z,1.02
2022-09-02T18:30:28.937Z,0.95
2022-09-02T18:33:12.235Z,1.25
2022-09-02T18:35:51.527Z,0.73
2022-09-02T18:38:30.388Z,0.98
2022-09-02T18:41:24.223Z,0.98
2022-09-02T18:44:00.074Z,0.70
2022-09-02T18:46:34.334Z,0.90
2022-09-02T18:49:03.666Z,0.80
2022-09-02T18:51:40.362Z,0.90
2022-09-02T18:54:13.561Z,1.00
2022-09-02T18:56:49.820Z,0.77
2022-09-02T18:59:28.973Z,0.83
2022-09-02T19:02:01.159Z,0.95
2022-09-02T19:04:29.545Z,0.95
2022-09-02T19:07:17.263Z,0.93
2022-09-02T19:12:11.955Z,1.40
2022-09-02T19:14:41.542Z,0.90
2022-09-02T19:17:09.567Z,1.00
2022-09-02T19:19:36.654Z,1.15
2022-09-02T19:22:08.848Z,0.98
2022-09-02T19:24:50.217Z,1.00
2022-09-02T19:27:23.092Z,0.85
2022-09-02T19:29:54.740Z,0.98
2022-09-02T19:32:30.009Z,1.00
2022-09-02T19:34:58.462Z,0.90
2022-09-02T19:37:29.656Z,1.02
2022-09-02T19:40:01.852Z,0.85
2022-09-02T19:42:32.158Z,1.30
2022-09-02T19:45:00.412Z,0.90
2022-09-02T19:50:14.850Z,1.20
2022-09-02T19:52:46.257Z,0.95
2022-09-02T19:55:16.304Z,0.93
2022-09-02T19:57:44.170Z,0.93
2022-09-02T20:00:12.970Z,0.90
2022-09-02T20:02:41.538Z,0.80
2022-09-02T20:05:13.442Z,0.85
2022-09-02T20:07:41.594Z,0.90
2022-09-02T20:10:09.438Z,1.48
2022-09-02T20:12:37.013Z,1.30
2022-09-02T20:15:07.021Z,1.40
2022-09-02T20:17:34.707Z,1.58
2022-09-02T20:20:14.687Z,1.65
2022-09-02T20:22:41.759Z,1.20
2022-09-02T20:25:10.674Z,1.50
2022-09-02T20:27:48.175Z,1.10
2022-09-02T20:30:18.689Z,1.50
2022-09-02T20:32:48.420Z,1.40
2022-09-02T20:35:24.819Z,1.33
2022-09-02T20:38:15.182Z,1.40
2022-09-02T20:41:00.839Z,1.30
2022-09-02T20:43:38.450Z,2.60
2022-09-02T20:46:38.478Z,1.90
2022-09-02T20:49:33.961Z,1.45
2022-09-02T20:52:32.156Z,1.10
2022-09-02T20:55:09.856Z,0.82
2022-09-02T20:58:15.686Z,1.02
2022-09-02T21:01:06.772Z,1.02
2022-09-02T21:03:54.349Z,0.95
2022-09-02T21:06:27.014Z,1.20
2022-09-02T21:09:15.563Z,1.05
2022-09-02T21:11:52.460Z,1.08
2022-09-02T21:14:28.359Z,0.90
2022-09-02T21:17:05.052Z,1.30
2022-09-02T21:19:35.188Z,1.30
2022-09-02T21:22:15.653Z,1.23
2022-09-02T21:24:54.341Z,1.38
2022-09-02T21:27:27.908Z,1.77
2022-09-02T21:30:05.465Z,1.20
2022-09-02T21:32:38.557Z,1.00
2022-09-02T21:35:20.018Z,0.90
2022-09-02T21:37:48.731Z,0.80
2022-09-02T21:40:19.055Z,0.88
2022-09-02T21:43:18.252Z,0.80
2022-09-02T21:46:38.954Z,1.08
2022-09-02T21:49:32.423Z,1.05
2022-09-02T21:52:27.260Z,0.93
2022-09-02T21:55:13.962Z,0.95
2022-09-02T21:58:10.058Z,0.73
2022-09-02T22:00:42.700Z,0.90
2022-09-02T22:03:40.210Z,0.90
2022-09-02T22:06:13.592Z,0.80
2022-09-02T22:08:51.893Z,1.02
2022-09-02T22:11:37.483Z,0.88
2022-09-02T22:14:21.961Z,1.02
2022-09-02T22:17:04.588Z,0.70
2022-09-02T22:19:39.288Z,1.05
2022-09-02T22:22:15.126Z,0.88
2022-09-02T22:24:42.733Z,1.10
2022-09-02T22:27:37.843Z,0.98
2022-09-02T22:30:16.718Z,1.92
2022-09-02T22:33:13.903Z,2.65
2022-09-02T22:35:54.444Z,2.00
2022-09-02T22:38:31.044Z,2.20
2022-09-02T22:41:20.366Z,2.00
2022-09-02T22:44:09.070Z,1.45
2022-09-02T22:47:18.957Z,1.40
2022-09-02T22:50:09.960Z,1.10
2022-09-02T22:52:57.349Z,1.15
2022-09-02T22:55:47.167Z,1.20
2022-09-02T22:58:38.845Z,1.40
2022-09-02T23:01:20.756Z,1.88
2022-09-02T23:04:02.643Z,1.45
2022-09-02T23:06:32.570Z,1.42
2022-09-02T23:09:11.452Z,1.50
2022-09-02T23:11:50.472Z,1.70
2022-09-02T23:14:35.641Z,1.30
2022-09-02T23:17:45.698Z,1.30
2022-09-02T23:20:22.344Z,1.30
2022-09-02T23:22:58.047Z,1.20
2022-09-02T23:25:55.395Z,1.38
2022-09-02T23:29:13.870Z,1.17
2022-09-02T23:31:55.989Z,1.30
2022-09-02T23:34:31.801Z,1.13
2022-09-02T23:37:25.379Z,1.00
2022-09-02T23:40:01.182Z,1.30
2022-09-02T23:42:29.141Z,1.20
2022-09-02T23:45:04.226Z,1.30
2022-09-02T23:48:10.263Z,1.23
2022-09-02T23:50:45.915Z,1.00
2022-09-02T23:53:32.751Z,1.25
2022-09-02T23:56:11.655Z,1.10
2022-09-02T23:58:50.335Z,1.10
